createdAt,value
2018-06-27T00:00:52.083Z,18.60
2018-06-27T00:03:20.892Z,19.10
2018-06-27T00:05:49.669Z,19.00
2018-06-27T00:08:18.327Z,18.57
2018-06-27T00:10:47.045Z,20.63
2018-06-27T00:13:15.744Z,19.10
2018-06-27T00:15:44.792Z,18.80
2018-06-27T00:18:13.378Z,19.57
2018-06-27T00:20:42.118Z,20.97
2018-06-27T00:23:10.885Z,21.17
2018-06-27T00:25:39.896Z,21.40
2018-06-27T00:28:08.929Z,20.70
2018-06-27T00:30:40.619Z,22.80
2018-06-27T00:33:09.299Z,21.30
2018-06-27T00:35:38.004Z,21.10
2018-06-27T00:38:18.281Z,21.07
2018-06-27T00:40:57.957Z,20.37
2018-06-27T00:43:30.136Z,22.90
2018-06-27T00:45:58.740Z,21.33
2018-06-27T00:48:27.454Z,21.23
2018-06-27T00:50:56.350Z,22.07
2018-06-27T00:53:29.266Z,22.40
2018-06-27T00:55:58.004Z,23.37
2018-06-27T00:58:26.802Z,24.03
2018-06-27T01:00:55.568Z,23.97
2018-06-27T01:03:24.216Z,23.20
2018-06-27T01:05:53.594Z,24.17
2018-06-27T01:08:22.392Z,25.57
2018-06-27T01:10:51.109Z,25.67
2018-06-27T01:13:19.698Z,25.47
2018-06-27T01:15:48.390Z,22.37
2018-06-27T01:18:17.123Z,23.00
2018-06-27T01:20:45.840Z,26.33
2018-06-27T01:23:14.599Z,23.97
2018-06-27T01:25:43.496Z,27.07
2018-06-27T01:28:12.313Z,24.20
2018-06-27T01:30:40.672Z,25.03
2018-06-27T01:33:09.389Z,24.23
2018-06-27T01:35:38.845Z,25.47
2018-06-27T01:38:07.444Z,23.03
2018-06-27T01:40:37.481Z,21.77
2018-06-27T01:43:06.724Z,25.10
2018-06-27T01:45:35.777Z,26.90
2018-06-27T01:48:04.497Z,25.37
2018-06-27T01:57:50.005Z,25.83
2018-06-27T02:00:19.623Z,25.63
2018-06-27T02:02:58.960Z,24.70
2018-06-27T02:05:28.937Z,24.90
2018-06-27T02:07:57.735Z,24.37
2018-06-27T02:10:26.493Z,24.50
2018-06-27T02:12:55.270Z,24.37
2018-06-27T02:15:24.088Z,27.23
2018-06-27T02:17:52.917Z,24.40
2018-06-27T02:20:21.763Z,24.27
2018-06-27T02:22:50.781Z,24.83
2018-06-27T02:25:19.578Z,25.10
2018-06-27T02:27:48.577Z,24.90
2018-06-27T02:30:18.535Z,23.90
2018-06-27T02:32:48.514Z,21.77
2018-06-27T02:35:17.168Z,21.70
2018-06-27T02:37:49.067Z,22.53
2018-06-27T02:40:17.311Z,23.40
2018-06-27T02:42:46.342Z,22.27
2018-06-27T02:45:15.113Z,22.47
2018-06-27T02:47:43.457Z,22.83
2018-06-27T02:50:12.074Z,23.17
2018-06-27T02:52:40.793Z,22.83
2018-06-27T02:55:09.682Z,22.83
2018-06-27T03:02:52.581Z,23.90
2018-06-27T03:05:30.179Z,23.50
2018-06-27T03:08:00.046Z,23.10
2018-06-27T03:10:40.339Z,22.47
2018-06-27T03:13:13.085Z,24.13
2018-06-27T03:20:23.181Z,24.80
2018-06-27T03:22:52.778Z,27.50
2018-06-27T03:25:27.467Z,29.77
2018-06-27T03:36:42.178Z,28.10
2018-06-27T04:06:40.700Z,32.42
2018-06-27T04:43:23.013Z,37.07
2018-06-27T04:45:52.338Z,37.23
2018-06-27T04:48:54.673Z,38.07
2018-06-27T07:36:59.336Z,25.77
2018-06-27T16:07:38.770Z,3.33
2018-06-27T16:15:59.034Z,2.30
2018-06-27T16:19:12.227Z,2.87
2018-06-27T17:27:51.353Z,2.30
2018-06-27T17:41:41.514Z,1.97
2018-06-27T17:44:12.568Z,1.80
2018-06-27T18:00:27.154Z,1.67
2018-06-27T18:37:47.934Z,1.63
2018-06-27T19:16:24.365Z,1.20
2018-06-27T19:26:54.574Z,1.73
2018-06-27T19:29:32.296Z,1.87
2018-06-27T19:32:06.352Z,1.70
2018-06-27T19:34:39.914Z,1.30
2018-06-27T19:40:30.014Z,1.67
2018-06-27T19:43:02.382Z,1.87
2018-06-27T19:45:34.522Z,1.60
2018-06-27T19:48:03.746Z,1.70
2018-06-27T19:50:40.067Z,1.50
2018-06-27T19:54:03.127Z,1.60
2018-06-27T19:56:34.309Z,1.70
2018-06-27T19:59:04.596Z,1.70
2018-06-27T20:01:36.252Z,2.00
2018-06-27T20:04:07.093Z,1.97
